Time;durP1;ratioP1;P1;durP2;ratioP2;P2;SDS_P1;SDS_P2;PMS_P1;PMS_P2;Temp;Humidity;BMP_temperature;BMP_pressure;BME280_temperature;BME280_humidity;BME280_pressure;Samples;Min_cycle;Max_cycle;Signal;HPM_P1;HPM_P2
2021/12/04 00:01:28;;;;;;;33.10;15.70;;;;;;;0.37;64.55;99637.70;1713338;82;21105;-73
2021/12/04 00:03:55;;;;;;;37.50;17.63;;;;;;;0.38;64.71;99638.10;1713101;83;21521;-73
2021/12/04 00:06:26;;;;;;;19.47;10.33;;;;;;;0.40;64.90;99636.38;1713380;83;21084;-73
2021/12/04 00:08:51;;;;;;;13.83;7.90;;;;;;;0.41;64.85;99640.66;1713321;83;20920;-73
2021/12/04 00:11:18;;;;;;;13.60;7.17;;;;;;;0.43;64.95;99629.46;1713161;83;21026;-73
2021/12/04 00:13:45;;;;;;;13.60;7.47;;;;;;;0.44;64.91;99629.02;1713446;83;21100;-73
2021/12/04 00:16:13;;;;;;;13.93;7.97;;;;;;;0.44;64.95;99626.04;1713030;83;21011;-73
2021/12/04 00:18:40;;;;;;;12.67;8.20;;;;;;;0.50;65.06;99628.12;1713441;83;21023;-73
2021/12/04 00:21:07;;;;;;;15.93;7.83;;;;;;;0.50;64.92;99623.84;1713040;83;21015;-73
2021/12/04 00:23:34;;;;;;;15.63;8.20;;;;;;;0.52;64.95;99622.08;1713282;83;21050;-73
2021/12/04 00:26:04;;;;;;;15.27;7.80;;;;;;;0.54;65.00;99617.77;1713137;83;21138;-73
2021/12/04 00:28:31;;;;;;;19.30;11.07;;;;;;;0.56;65.17;99610.89;1713342;83;20996;-73
2021/12/04 00:31:04;;;;;;;13.67;8.70;;;;;;;0.60;65.10;99607.84;1713187;83;21501;-74
2021/12/04 00:33:31;;;;;;;18.90;9.73;;;;;;;0.62;65.08;99608.69;1712664;83;21030;-73
2021/12/04 00:36:02;;;;;;;18.60;9.27;;;;;;;0.63;65.07;99599.63;1713144;83;20999;-73
2021/12/04 00:49:30;;;;;;;25.33;10.97;;;;;;;0.73;65.12;99565.59;1713408;82;21030;-73
2021/12/04 00:51:58;;;;;;;27.20;10.53;;;;;;;0.76;65.21;99562.97;1713029;83;22013;-73
2021/12/04 00:54:28;;;;;;;25.63;14.07;;;;;;;0.76;65.29;99555.67;1713084;83;21007;-73
2021/12/04 00:56:56;;;;;;;20.20;9.78;;;;;;;0.80;65.15;99552.17;1713252;83;21039;-73
2021/12/04 00:59:23;;;;;;;16.23;9.57;;;;;;;0.81;65.22;99543.59;1713288;83;21070;-73
2021/12/04 01:01:51;;;;;;;11.47;7.17;;;;;;;0.85;65.18;99542.67;1713276;83;21051;-73
2021/12/04 01:04:20;;;;;;;12.13;7.67;;;;;;;0.80;65.14;99542.70;1712850;83;22076;-73
2021/12/04 01:06:49;;;;;;;16.17;9.03;;;;;;;0.80;65.16;99545.28;1713384;83;21493;-73
2021/12/04 01:09:21;;;;;;;14.37;9.37;;;;;;;0.78;65.20;99539.31;1713351;83;21099;-73
2021/12/04 01:11:49;;;;;;;15.10;8.70;;;;;;;0.77;65.16;99545.33;1713123;83;21035;-73
2021/12/04 01:14:20;;;;;;;13.73;7.90;;;;;;;0.76;65.26;99545.36;1713256;83;21070;-73
2021/12/04 01:16:48;;;;;;;14.20;7.72;;;;;;;0.76;65.33;99540.20;1713216;83;21132;-72
2021/12/04 01:19:15;;;;;;;13.90;8.23;;;;;;;0.79;65.46;99542.30;1713142;83;21040;-73
2021/12/04 01:21:43;;;;;;;10.63;6.70;;;;;;;0.80;65.44;99537.55;1713207;83;21019;-73
2021/12/04 01:24:10;;;;;;;12.77;7.63;;;;;;;0.82;65.55;99537.10;1713298;83;21026;-72
2021/12/04 01:26:38;;;;;;;10.93;6.87;;;;;;;0.82;65.44;99534.52;1713034;83;21576;-73
2021/12/04 01:29:06;;;;;;;13.10;8.43;;;;;;;0.81;65.49;99544.44;1713384;83;21098;-73
2021/12/04 01:31:34;;;;;;;11.87;7.00;;;;;;;0.84;65.52;99543.11;1712876;83;21528;-73
2021/12/04 01:34:01;;;;;;;12.60;7.90;;;;;;;0.85;65.62;99541.38;1713268;83;21516;-73
2021/12/04 01:36:29;;;;;;;13.87;7.67;;;;;;;0.89;65.77;99535.33;1713082;83;21086;-73
2021/12/04 01:38:56;;;;;;;11.33;7.30;;;;;;;0.94;65.65;99542.55;1713347;83;21023;-73
2021/12/04 01:41:24;;;;;;;11.90;7.17;;;;;;;0.97;65.56;99539.08;1712962;83;21267;-72
2021/12/04 01:43:51;;;;;;;11.30;7.77;;;;;;;0.97;65.61;99542.55;1713072;83;21062;-73
2021/12/04 01:46:19;;;;;;;12.17;6.87;;;;;;;1.01;65.58;99536.45;1713023;83;21022;-73
2021/12/04 01:48:46;;;;;;;18.40;11.13;;;;;;;1.02;65.56;99536.02;1713307;83;21031;-73
2021/12/04 01:51:14;;;;;;;18.63;9.93;;;;;;;1.03;65.53;99537.30;1713082;83;21532;-73
2021/12/04 01:53:41;;;;;;;17.27;10.73;;;;;;;1.05;65.64;99526.53;1713031;83;21534;-73
2021/12/04 01:56:09;;;;;;;12.10;7.77;;;;;;;1.10;65.54;99529.88;1713128;83;21011;-73
2021/12/04 01:58:36;;;;;;;12.43;7.47;;;;;;;1.10;65.56;99523.43;1713389;83;21645;-73
2021/12/04 02:01:06;;;;;;;10.37;6.77;;;;;;;1.13;65.49;99521.69;1713116;83;21035;-72
2021/12/04 02:03:36;;;;;;;12.35;8.00;;;;;;;1.14;65.52;99517.81;1713338;83;21519;-73
2021/12/04 02:06:03;;;;;;;18.97;11.33;;;;;;;1.16;65.38;99516.48;1713365;83;21284;-73
2021/12/04 02:08:30;;;;;;;38.30;18.60;;;;;;;1.15;65.47;99517.38;1713383;83;20988;-73
2021/12/04 02:11:00;;;;;;;17.97;8.57;;;;;;;1.18;65.39;99514.30;1713241;83;21094;-73
2021/12/04 02:13:27;;;;;;;32.10;15.68;;;;;;;1.14;65.27;99512.66;1713690;83;21031;-73
2021/12/04 02:15:55;;;;;;;32.37;14.70;;;;;;;1.16;65.36;99508.75;1713117;83;20991;-73
2021/12/04 02:18:23;;;;;;;21.37;10.87;;;;;;;1.17;65.37;99510.03;1713436;83;21136;-73
2021/12/04 02:20:51;;;;;;;22.97;11.23;;;;;;;1.19;65.33;99506.13;1713174;82;21496;-73
2021/12/04 02:23:21;;;;;;;36.83;19.80;;;;;;;1.21;65.46;99500.06;1713440;83;21018;-73
2021/12/04 02:25:49;;;;;;;31.40;14.93;;;;;;;1.23;65.36;99498.33;1713505;83;21023;-73
2021/12/04 02:28:17;;;;;;;25.53;10.90;;;;;;;1.24;65.34;99499.17;1713099;83;21023;-73
2021/12/04 02:30:47;;;;;;;31.27;11.10;;;;;;;1.26;65.28;99490.98;1713400;83;21128;-73
2021/12/04 02:33:16;;;;;;;28.73;11.95;;;;;;;1.29;65.37;99491.78;1713155;83;21505;-73
2021/12/04 02:35:50;;;;;;;46.00;16.80;;;;;;;1.33;65.12;99490.88;1713450;83;21038;-73
2021/12/04 02:38:26;;;;;;;39.17;19.23;;;;;;;1.30;65.16;99493.51;1713109;83;20995;-73
2021/12/04 02:40:56;;;;;;;24.67;11.57;;;;;;;1.36;65.13;99490.40;1686378;84;21488;-73
2021/12/04 02:43:24;;;;;;;15.93;8.17;;;;;;;1.37;65.21;99483.94;1686354;84;21138;-73
2021/12/04 02:45:52;;;;;;;19.87;8.40;;;;;;;1.43;65.08;99486.42;1693834;84;21007;-73
2021/12/04 02:48:21;;;;;;;22.67;9.67;;;;;;;1.42;64.99;99469.68;1693874;84;21111;-73
2021/12/04 02:50:48;;;;;;;27.37;11.63;;;;;;;1.46;64.96;99473.46;1694218;84;21031;-73
2021/12/04 02:53:18;;;;;;;23.87;9.17;;;;;;;1.45;64.94;99477.38;1697109;81;21008;-73
2021/12/04 02:55:46;;;;;;;27.58;11.68;;;;;;;1.46;64.98;99472.61;1763986;81;21270;-73
2021/12/04 02:58:16;;;;;;;22.60;9.40;;;;;;;1.49;64.94;99473.41;1763704;81;20946;-73
2021/12/04 03:00:50;;;;;;;26.60;10.80;;;;;;;1.51;64.96;99466.95;1763888;81;21033;-73
2021/12/04 03:03:13;;;;;;;35.92;14.60;;;;;;;1.53;64.83;99467.78;1763108;81;20989;-73
2021/12/04 03:05:40;;;;;;;30.17;13.80;;;;;;;1.53;64.96;99465.20;1768935;81;21028;-73
2021/12/04 03:08:07;;;;;;;16.53;9.23;;;;;;;1.54;64.76;99464.31;1771705;80;21913;-73
2021/12/04 03:10:35;;;;;;;23.63;9.87;;;;;;;1.51;64.88;99453.59;1771967;80;21463;-73
2021/12/04 03:13:06;;;;;;;21.77;9.23;;;;;;;1.55;64.70;99450.10;1771913;80;21043;-73
2021/12/04 03:15:31;;;;;;;21.10;10.77;;;;;;;1.50;64.65;99448.02;1771433;80;20972;-73
2021/12/04 03:17:58;;;;;;;21.50;10.47;;;;;;;1.51;64.67;99441.97;1771873;81;21047;-73
2021/12/04 03:20:25;;;;;;;15.60;6.97;;;;;;;1.50;64.68;99445.44;1788453;79;21081;-73
2021/12/04 03:22:58;;;;;;;20.07;9.57;;;;;;;1.49;64.63;99445.45;1797967;79;21478;-73
2021/12/04 03:25:21;;;;;;;17.70;8.47;;;;;;;1.47;64.54;99437.75;1797752;79;21025;-72
2021/12/04 03:27:50;;;;;;;78.97;30.27;;;;;;;1.47;64.66;99436.45;1779870;79;21049;-72
2021/12/04 03:30:42;;;;;;;37.63;15.53;;;;;;;1.50;64.64;99435.55;1766953;81;21459;-72
2021/12/04 03:41:09;;;;;;;35.33;15.00;;;;;;;1.59;64.49;99437.98;1709383;84;21080;-73
2021/12/04 03:43:34;;;;;;;15.70;8.00;;;;;;;1.57;64.38;99434.56;1708765;83;21024;-73
2021/12/04 03:46:06;;;;;;;8.63;5.13;;;;;;;1.58;64.47;99430.24;1719824;82;21911;-73
2021/12/04 03:51:03;;;;;;;15.23;7.10;;;;;;;1.65;64.50;99424.96;1798453;79;21025;-73
2021/12/04 03:53:31;;;;;;;20.02;7.55;;;;;;;1.68;64.42;99422.33;1798325;79;21009;-74
2021/12/04 03:56:00;;;;;;;21.65;7.58;;;;;;;1.70;64.32;99422.31;1809004;79;21494;-73
2021/12/04 03:58:27;;;;;;;38.10;15.37;;;;;;;1.68;64.25;99417.16;1808778;78;21292;-73
2021/12/04 04:00:55;;;;;;;22.43;10.20;;;;;;;1.69;64.15;99417.59;1808967;78;21026;-73
2021/12/04 04:03:25;;;;;;;40.13;12.30;;;;;;;1.68;64.17;99411.14;1808880;78;21006;-73
2021/12/04 04:05:51;;;;;;;44.67;15.53;;;;;;;1.68;64.06;99408.56;1809153;78;20971;-73
2021/12/04 04:08:18;;;;;;;28.23;8.97;;;;;;;1.66;64.14;99411.16;1808890;79;21531;-73
2021/12/04 04:10:48;;;;;;;31.97;11.40;;;;;;;1.69;64.08;99398.63;1788888;78;21148;-73
2021/12/04 04:13:15;;;;;;;41.47;13.73;;;;;;;1.68;64.11;99401.66;1801664;79;21508;-73
2021/12/04 04:15:42;;;;;;;41.83;13.87;;;;;;;1.68;64.06;99396.94;1777732;78;21005;-73
2021/12/04 04:18:10;;;;;;;38.03;13.73;;;;;;;1.69;64.27;99401.22;1777072;80;20926;-73
2021/12/04 04:20:37;;;;;;;33.20;11.77;;;;;;;1.72;64.22;99403.33;1777051;79;21477;-73
2021/12/04 04:23:05;;;;;;;31.97;12.13;;;;;;;1.71;64.06;99408.06;1776982;80;21074;-73
2021/12/04 04:25:34;;;;;;;34.63;12.23;;;;;;;1.69;64.11;99401.22;1776854;80;21006;-73
2021/12/04 04:28:01;;;;;;;78.07;26.10;;;;;;;1.68;64.06;99391.77;1777364;80;22010;-73
2021/12/04 04:30:28;;;;;;;29.47;10.77;;;;;;;1.65;64.13;99397.84;1777067;80;21010;-72
2021/12/04 04:32:55;;;;;;;32.63;9.97;;;;;;;1.68;64.04;99391.77;1777393;80;20991;-73
2021/12/04 04:35:27;;;;;;;29.43;10.70;;;;;;;1.64;64.10;99396.15;1776916;80;21138;-73
2021/12/04 04:38:45;;;;;;;50.10;15.07;;;;;;;1.68;64.23;99393.06;1777175;80;21061;-73
2021/12/04 04:59:56;;;;;;;38.83;15.90;;;;;;;1.66;63.97;99381.45;1734016;82;21037;-72
2021/12/04 05:02:27;;;;;;;22.20;8.37;;;;;;;1.65;64.00;99382.78;1781255;80;21529;-72
2021/12/04 05:13:07;;;;;;;18.20;7.30;;;;;;;1.58;63.97;99378.17;1782120;80;21036;-73
2021/12/04 05:15:37;;;;;;;15.27;7.27;;;;;;;1.58;64.10;99376.89;1782472;80;21115;-74
2021/12/04 05:21:05;;;;;;;11.37;4.87;;;;;;;1.55;64.13;99383.36;1782443;80;21016;-73
2021/12/04 05:23:40;;;;;;;10.43;4.80;;;;;;;1.60;64.25;99382.01;1782096;80;21515;-72
2021/12/04 05:26:11;;;;;;;7.80;4.03;;;;;;;1.62;64.22;99384.98;1782472;80;21021;-73
2021/12/04 05:28:38;;;;;;;5.13;3.20;;;;;;;1.66;64.31;99385.33;1782364;80;21145;-73
2021/12/04 05:31:06;;;;;;;7.10;4.10;;;;;;;1.68;64.12;99385.31;1782032;80;21487;-73
2021/12/04 05:33:33;;;;;;;8.17;4.27;;;;;;;1.70;63.99;99381.83;1782462;80;21022;-73
2021/12/04 05:36:00;;;;;;;8.20;4.63;;;;;;;1.72;64.16;99385.69;1782260;80;21013;-73
2021/12/04 05:38:27;;;;;;;11.23;5.30;;;;;;;1.78;64.33;99378.67;1782360;80;21084;-73
2021/12/04 05:40:55;;;;;;;11.90;4.73;;;;;;;1.84;64.34;99380.73;1782173;80;21127;-73
2021/12/04 05:43:24;;;;;;;6.30;4.07;;;;;;;1.92;64.39;99374.55;1782321;80;21013;-73
2021/12/04 05:46:05;;;;;;;6.60;3.93;;;;;;;1.96;64.17;99374.89;1782221;80;20989;-73
2021/12/04 05:48:32;;;;;;;9.13;4.20;;;;;;;1.97;63.97;99377.91;1781715;80;21029;-74
2021/12/04 05:56:20;;;;;;;8.17;4.57;;;;;;;1.92;64.01;99381.45;1767172;80;21022;-73
2021/12/04 05:58:49;;;;;;;6.50;3.97;;;;;;;1.87;63.67;99384.56;1766174;81;21491;-73
2021/12/04 06:01:19;;;;;;;10.00;4.73;;;;;;;1.90;63.84;99373.72;1765963;80;21062;-73
2021/12/04 06:03:47;;;;;;;8.18;4.92;;;;;;;1.92;63.81;99371.13;1766390;81;20998;-73
2021/12/04 06:06:15;;;;;;;10.27;5.83;;;;;;;1.91;63.49;99374.56;1766043;80;21208;-73
2021/12/04 06:08:43;;;;;;;7.27;4.50;;;;;;;1.84;63.44;99375.13;1766081;81;20876;-73
2021/12/04 06:11:11;;;;;;;11.70;4.70;;;;;;;1.81;63.33;99371.31;1765830;81;20975;-73
2021/12/04 06:13:38;;;;;;;12.00;7.53;;;;;;;1.76;63.48;99368.80;1765984;81;21010;-73
2021/12/04 06:16:06;;;;;;;11.17;5.93;;;;;;;1.79;63.67;99367.89;1766163;81;21073;-73
2021/12/04 06:18:34;;;;;;;12.77;5.93;;;;;;;1.82;63.85;99370.42;1765926;80;21127;-73
2021/12/04 06:23:46;;;;;;;11.43;7.10;;;;;;;2.00;63.92;99352.45;1699956;83;21027;-73
2021/12/04 06:26:14;;;;;;;10.90;5.87;;;;;;;1.99;63.70;99364.94;1754642;81;21030;-74
2021/12/04 06:28:41;;;;;;;8.47;4.23;;;;;;;2.03;63.60;99361.44;1755025;81;21369;-73
2021/12/04 06:31:09;;;;;;;7.07;4.50;;;;;;;1.99;63.59;99354.16;1755209;81;21113;-73
2021/12/04 06:33:38;;;;;;;9.63;4.57;;;;;;;2.01;63.64;99352.41;1754799;81;20931;-73
2021/12/04 06:36:06;;;;;;;8.83;4.50;;;;;;;2.04;63.68;99353.23;1755064;81;21002;-73
2021/12/04 06:38:34;;;;;;;8.83;4.77;;;;;;;2.04;63.80;99345.03;1754814;81;21441;-73
2021/12/04 06:41:01;;;;;;;9.50;4.40;;;;;;;2.07;63.66;99352.72;1755196;81;21464;-73
2021/12/04 06:43:29;;;;;;;9.13;5.00;;;;;;;2.08;63.90;99354.45;1755067;81;21805;-73
2021/12/04 06:46:00;;;;;;;9.37;5.87;;;;;;;2.08;63.50;99352.28;1755216;81;20930;-73
2021/12/04 06:48:47;;;;;;;8.63;4.90;;;;;;;2.07;63.67;99360.48;1755039;81;21014;-77
2021/12/04 06:51:28;;;;;;;8.93;5.33;;;;;;;2.12;63.54;99353.48;1754865;81;21014;-71
2021/12/04 06:54:03;;;;;;;9.60;5.03;;;;;;;2.12;63.56;99346.19;1754909;81;21035;-74
2021/12/04 06:56:31;;;;;;;12.40;5.93;;;;;;;2.15;63.47;99355.17;1753404;81;21118;-72
2021/12/04 06:58:54;;;;;;;12.70;5.60;;;;;;;2.16;63.44;99353.86;1754651;81;21066;-70
2021/12/04 07:01:21;;;;;;;13.67;9.00;;;;;;;2.15;63.37;99347.41;1755313;81;21018;-73
2021/12/04 07:03:49;;;;;;;14.83;11.63;;;;;;;2.14;63.53;99347.02;1755076;81;21030;-71
2021/12/04 07:06:16;;;;;;;28.30;17.13;;;;;;;2.17;63.67;99354.70;1755382;81;21011;-70
2021/12/04 07:08:43;;;;;;;36.63;19.37;;;;;;;2.21;63.69;99345.99;1699938;83;21115;-72
2021/12/04 07:11:09;;;;;;;32.93;20.00;;;;;;;2.22;63.60;99348.56;1755298;81;21006;-72
2021/12/04 07:13:37;;;;;;;34.03;19.17;;;;;;;2.24;63.64;99352.39;1699151;83;21056;-70
2021/12/04 07:16:06;;;;;;;20.33;11.97;;;;;;;2.25;63.68;99348.94;1755167;81;21070;-72
2021/12/04 07:18:35;;;;;;;46.00;26.43;;;;;;;2.22;63.46;99351.59;1698802;84;21074;-72
2021/12/04 07:21:03;;;;;;;14.27;8.37;;;;;;;2.22;63.51;99347.72;1755220;81;21468;-73
2021/12/04 07:23:31;;;;;;;12.13;5.60;;;;;;;2.19;63.40;99349.04;1755037;81;20904;-72
2021/12/04 07:25:58;;;;;;;9.93;5.57;;;;;;;2.18;63.41;99348.19;1755263;81;20987;-72
2021/12/04 07:28:25;;;;;;;15.43;7.20;;;;;;;2.20;63.47;99349.47;1754927;81;20995;-72
2021/12/04 07:30:52;;;;;;;18.80;9.03;;;;;;;2.21;63.51;99350.72;1755366;81;21050;-72
2021/12/04 07:33:20;;;;;;;17.30;7.70;;;;;;;2.27;63.71;99352.33;1755157;81;21103;-71
2021/12/04 07:35:47;;;;;;;17.33;7.90;;;;;;;2.29;63.66;99353.16;1755222;81;21010;-75
2021/12/04 07:38:14;;;;;;;23.63;11.73;;;;;;;2.27;63.55;99349.73;1754966;81;21014;-74
2021/12/04 07:40:43;;;;;;;22.93;11.77;;;;;;;2.30;63.45;99355.30;1755340;81;20991;-71
2021/12/04 07:43:12;;;;;;;18.17;8.63;;;;;;;2.26;63.43;99355.80;1698427;84;21549;-71
2021/12/04 07:45:40;;;;;;;24.63;12.60;;;;;;;2.27;63.45;99346.31;1755220;80;21900;-71
2021/12/04 07:48:07;;;;;;;24.47;13.00;;;;;;;2.25;63.33;99344.22;1698816;83;21000;-72
2021/12/04 07:50:34;;;;;;;26.67;12.77;;;;;;;2.19;63.48;99347.33;1755291;78;21022;-71
2021/12/04 07:53:02;;;;;;;27.17;13.77;;;;;;;2.24;63.72;99339.47;1782648;80;21544;-71
2021/12/04 07:55:30;;;;;;;21.23;10.93;;;;;;;2.22;63.57;99341.25;1783827;79;21274;-70
2021/12/04 07:57:57;;;;;;;21.60;10.53;;;;;;;2.24;63.53;99344.63;1769638;80;21105;-71
2021/12/04 08:00:25;;;;;;;9.83;5.83;;;;;;;2.21;63.48;99351.16;1754835;80;21011;-74
2021/12/04 08:02:52;;;;;;;9.50;5.43;;;;;;;2.25;63.68;99351.97;1754976;81;20993;-71
2021/12/04 08:05:19;;;;;;;10.20;4.23;;;;;;;2.24;63.58;99367.91;1755351;81;21417;-71
2021/12/04 08:07:47;;;;;;;6.27;3.73;;;;;;;2.19;63.49;99360.26;1712052;82;21006;-70
2021/12/04 08:10:18;;;;;;;9.00;4.23;;;;;;;2.18;63.33;99363.70;1700971;84;22163;-70
2021/12/04 08:12:45;;;;;;;6.97;3.53;;;;;;;2.15;63.42;99362.48;1720609;82;21026;-70
2021/12/04 08:15:12;;;;;;;7.97;4.00;;;;;;;2.17;63.40;99369.77;1700873;84;21051;-70
2021/12/04 08:17:43;;;;;;;7.40;4.10;;;;;;;2.18;63.36;99369.32;1700694;84;21464;-70
2021/12/04 08:20:14;;;;;;;8.13;3.95;;;;;;;2.21;63.58;99366.67;1766340;80;21535;-70
2021/12/04 08:22:43;;;;;;;26.83;14.40;;;;;;;2.26;63.47;99364.86;1772003;79;21139;-70
2021/12/04 08:25:14;;;;;;;40.17;21.83;;;;;;;2.28;63.52;99368.72;1717746;82;21013;-73
2021/12/04 08:27:43;;;;;;;45.87;25.90;;;;;;;2.32;63.50;99371.19;1722690;82;21071;-70
2021/12/04 08:30:14;;;;;;;29.67;16.73;;;;;;;2.35;63.56;99371.13;1789193;79;21006;-71
2021/12/04 08:32:41;;;;;;;24.10;14.73;;;;;;;2.30;63.47;99373.39;1783954;79;21010;-73
2021/12/04 08:35:12;;;;;;;16.60;10.57;;;;;;;2.23;63.59;99372.23;1699171;83;21077;-72
2021/12/04 08:37:39;;;;;;;9.30;5.97;;;;;;;2.14;64.17;99373.70;1767972;80;20983;-77
2021/12/04 08:40:13;;;;;;;10.73;6.00;;;;;;;2.11;64.34;99369.05;1768417;80;21059;-71
2021/12/04 08:42:40;;;;;;;42.00;23.83;;;;;;;2.02;64.65;99366.17;1758535;80;20999;-79
2021/12/04 08:45:09;;;;;;;37.10;22.23;;;;;;;1.97;65.15;99364.14;1754991;80;20984;-75
2021/12/04 08:47:38;;;;;;;21.97;13.43;;;;;;;1.96;65.64;99362.41;1755242;80;21924;-79
2021/12/04 08:50:12;;;;;;;16.70;10.90;;;;;;;1.94;65.88;99361.58;1755005;80;21004;-75
2021/12/04 08:52:40;;;;;;;13.73;8.20;;;;;;;1.93;66.06;99357.31;1755616;80;20988;-71
2021/12/04 08:55:09;;;;;;;10.20;6.93;;;;;;;1.85;66.46;99358.73;1754931;80;21374;-71
2021/12/04 08:57:36;;;;;;;12.43;6.90;;;;;;;1.84;66.45;99360.07;1739905;81;21529;-71
2021/12/04 09:00:10;;;;;;;11.97;8.37;;;;;;;1.79;66.74;99363.58;1739704;81;21135;-71
2021/12/04 09:02:38;;;;;;;15.60;8.53;;;;;;;1.78;67.17;99358.00;1798771;79;21513;-70
2021/12/04 09:05:08;;;;;;;10.53;6.53;;;;;;;1.83;67.63;99372.14;1808083;79;20993;-73
2021/12/04 09:07:35;;;;;;;11.83;7.25;;;;;;;1.79;67.67;99370.03;1800926;79;21268;-71
2021/12/04 09:10:04;;;;;;;12.53;8.37;;;;;;;1.74;67.97;99366.67;1808776;79;20977;-76
2021/12/04 09:12:33;;;;;;;12.57;8.23;;;;;;;1.70;68.19;99359.02;1804008;79;21092;-75
2021/12/04 09:15:04;;;;;;;15.53;9.87;;;;;;;1.63;68.30;99362.13;1792180;79;21623;-74
2021/12/04 09:17:31;;;;;;;14.50;8.90;;;;;;;1.60;68.67;99362.19;1777380;79;20992;-75
2021/12/04 09:19:58;;;;;;;10.90;7.83;;;;;;;1.58;69.00;99363.09;1776131;79;21022;-72
2021/12/04 09:22:29;;;;;;;36.17;19.93;;;;;;;1.55;68.98;99363.58;1777208;79;21015;-71
2021/12/04 09:24:59;;;;;;;23.50;12.53;;;;;;;1.55;69.30;99364.00;1778132;79;21156;-73
2021/12/04 10:00:30;;;;;;;9.93;6.33;;;;;;;1.81;71.62;99327.83;1778009;79;21534;-75
2021/12/04 10:05:47;;;;;;;9.53;6.40;;;;;;;1.82;72.31;99321.77;1787841;79;21093;-75
2021/12/04 10:16:58;;;;;;;7.83;4.33;;;;;;;1.92;72.77;99304.78;1781616;79;21522;-75
2021/12/04 10:21:54;;;;;;;7.42;4.35;;;;;;;2.06;72.61;99294.62;1757636;80;21046;-76
2021/12/04 10:24:43;;;;;;;7.83;5.07;;;;;;;2.08;72.58;99296.70;1769210;79;21519;-77
2021/12/04 10:35:00;;;;;;;8.90;5.57;;;;;;;2.13;73.06;99284.55;1766357;81;21021;-74
2021/12/04 10:37:29;;;;;;;15.00;8.00;;;;;;;2.15;73.10;99289.25;1767997;79;21002;-76
2021/12/04 10:40:03;;;;;;;16.47;10.07;;;;;;;2.13;73.15;99289.27;1785323;79;21011;-74
2021/12/04 10:42:53;;;;;;;33.93;12.70;;;;;;;2.09;73.16;99286.34;1770523;79;21018;-74
2021/12/04 10:45:32;;;;;;;13.50;7.10;;;;;;;2.05;73.11;99291.60;1766408;81;21118;-75
2021/12/04 10:48:01;;;;;;;24.90;11.10;;;;;;;1.94;73.08;99295.69;1765950;81;21575;-74
2021/12/04 10:50:38;;;;;;;40.55;14.55;;;;;;;1.90;73.44;99287.15;1766564;80;20923;-75
2021/12/04 10:53:02;;;;;;;25.02;9.45;;;;;;;1.94;73.56;99289.23;1768081;79;21011;-74
2021/12/04 11:03:44;;;;;;;19.20;7.33;;;;;;;2.07;73.89;99266.58;1766471;81;21473;-73
2021/12/04 11:40:29;;;;;;;7.07;4.67;;;;;;;2.09;75.27;99238.98;1797696;79;22006;-75
2021/12/04 11:42:55;;;;;;;7.87;4.70;;;;;;;2.11;75.35;99226.88;1779522;79;21519;-75
2021/12/04 11:45:31;;;;;;;9.37;5.40;;;;;;;2.15;75.14;99224.63;1765977;81;21072;-74
2021/12/04 11:48:03;;;;;;;6.93;4.70;;;;;;;2.14;75.26;99222.48;1766219;81;21021;-72
2021/12/04 11:50:35;;;;;;;7.40;4.53;;;;;;;2.14;75.30;99221.64;1771844;79;21065;-76
2021/12/04 11:53:07;;;;;;;7.63;5.30;;;;;;;2.13;75.08;99219.92;1767847;79;21176;-73
2021/12/04 11:55:39;;;;;;;9.03;5.80;;;;;;;2.11;75.26;99214.80;1773633;79;21018;-73
2021/12/04 11:58:31;;;;;;;9.53;5.33;;;;;;;2.21;75.49;99200.77;1766014;80;20994;-73
2021/12/04 12:01:09;;;;;;;9.23;4.80;;;;;;;2.32;75.25;99202.27;1766184;79;21483;-73
2021/12/04 12:03:36;;;;;;;7.80;4.30;;;;;;;2.33;74.99;99205.25;1783946;79;20991;-74
2021/12/04 12:06:10;;;;;;;7.53;3.77;;;;;;;2.33;75.03;99199.66;1795982;79;21083;-74
2021/12/04 12:08:42;;;;;;;5.83;4.10;;;;;;;2.38;75.43;99191.78;1777587;79;21045;-76
2021/12/04 12:11:14;;;;;;;18.23;8.50;;;;;;;2.45;75.52;99192.06;1775691;79;21069;-73
2021/12/04 12:13:51;;;;;;;9.07;4.80;;;;;;;2.45;75.42;99198.08;1753056;80;20947;-75
2021/12/04 12:16:24;;;;;;;8.07;4.60;;;;;;;2.48;75.38;99195.02;1755195;80;21030;-76
2021/12/04 12:18:57;;;;;;;6.57;4.30;;;;;;;2.50;75.46;99195.39;1766147;79;21939;-78
2021/12/04 12:21:33;;;;;;;8.00;3.80;;;;;;;2.57;75.82;99187.03;1796082;79;21003;-73
2021/12/04 12:24:23;;;;;;;5.63;3.80;;;;;;;2.67;75.71;99175.14;1768600;79;21065;-76
2021/12/04 12:38:40;;;;;;;7.93;5.00;;;;;;;3.09;75.59;99166.32;1770511;79;21548;-72
2021/12/04 12:41:31;;;;;;;9.53;5.00;;;;;;;3.22;75.42;99165.56;1766116;81;21022;-77
2021/12/04 12:44:28;;;;;;;6.80;4.50;;;;;;;3.26;75.33;99160.69;1766516;81;20975;-74
2021/12/04 12:47:05;;;;;;;9.27;4.70;;;;;;;3.31;75.15;99159.67;1717726;82;21115;-72
2021/12/04 12:49:43;;;;;;;10.90;5.17;;;;;;;3.42;75.27;99154.66;1700660;83;20977;-74
2021/12/04 12:52:23;;;;;;;7.87;4.93;;;;;;;3.57;75.33;99155.08;1700911;83;21011;-77
2021/12/04 12:54:55;;;;;;;7.13;4.60;;;;;;;3.78;75.14;99152.75;1766283;80;21034;-76
2021/12/04 12:57:26;;;;;;;7.23;4.13;;;;;;;3.96;74.60;99144.86;1765863;80;21029;-73
2021/12/04 13:12:00;;;;;;;9.00;5.73;;;;;;;4.47;74.19;99144.98;1763322;80;21476;-72
2021/12/04 13:14:32;;;;;;;8.37;5.27;;;;;;;4.64;73.56;99134.05;1768678;79;21015;-73
2021/12/04 13:17:09;;;;;;;11.57;5.30;;;;;;;4.63;73.10;99134.97;1763423;79;20895;-72
2021/12/04 13:19:41;;;;;;;8.33;5.23;;;;;;;4.62;73.16;99130.66;1766274;81;21479;-72
2021/12/04 13:22:17;;;;;;;9.80;5.03;;;;;;;4.64;72.96;99129.32;1766012;80;21435;-74
2021/12/04 13:24:48;;;;;;;9.10;5.63;;;;;;;4.60;72.03;99129.88;1765819;81;21073;-74
2021/12/04 13:29:51;;;;;;;10.73;7.03;;;;;;;4.53;71.44;99130.13;1766173;80;20165;-73
2021/12/04 13:32:35;;;;;;;8.40;5.03;;;;;;;4.55;71.38;99124.45;1778777;79;21023;-74
2021/12/04 13:35:10;;;;;;;9.13;5.77;;;;;;;4.49;71.07;99116.41;1793193;79;21006;-74
2021/12/04 13:37:39;;;;;;;8.50;5.50;;;;;;;4.56;70.86;99111.41;1775575;79;21167;-76
2021/12/04 13:40:12;;;;;;;8.57;5.20;;;;;;;4.72;70.52;99110.45;1781248;79;21512;-74
2021/12/04 13:42:40;;;;;;;9.03;4.40;;;;;;;4.84;70.38;99106.12;1765883;80;20990;-76
2021/12/04 13:45:12;;;;;;;7.47;4.50;;;;;;;4.96;69.68;99108.77;1773145;79;21472;-74
2021/12/04 13:47:41;;;;;;;10.13;4.67;;;;;;;4.90;68.85;99099.88;1790757;79;21034;-74
2021/12/04 13:53:02;;;;;;;11.20;4.80;;;;;;;4.77;68.08;99114.20;1772686;79;21091;-74
2021/12/04 13:55:32;;;;;;;9.87;5.13;;;;;;;4.78;68.05;99118.02;1777620;79;21038;-74
2021/12/04 13:57:59;;;;;;;8.58;5.00;;;;;;;4.88;67.53;99109.48;1778083;78;20982;-74
2021/12/04 14:00:26;;;;;;;12.03;6.20;;;;;;;4.85;67.09;99099.17;1792269;79;21107;-75
2021/12/04 14:02:53;;;;;;;10.10;6.50;;;;;;;4.82;66.86;99101.87;1789462;79;21066;-80
2021/12/04 14:05:24;;;;;;;11.83;6.53;;;;;;;4.79;66.72;99093.75;1782424;79;21066;-77
2021/12/04 14:07:55;;;;;;;13.15;6.87;;;;;;;4.80;66.35;99099.36;1781740;79;21037;-73
2021/12/04 14:10:30;;;;;;;11.40;6.57;;;;;;;4.69;66.29;99104.91;1771542;79;21003;-76
2021/12/04 14:13:03;;;;;;;13.77;7.13;;;;;;;4.61;66.03;99103.47;1762295;79;21085;-75
2021/12/04 14:15:33;;;;;;;10.53;6.03;;;;;;;4.47;65.98;99103.93;1775314;79;21259;-75
2021/12/04 14:18:12;;;;;;;11.90;6.63;;;;;;;4.35;65.94;99113.39;1766173;81;21484;-75
2021/12/04 14:20:42;;;;;;;11.43;6.30;;;;;;;4.24;65.72;99117.66;1766241;81;21468;-75
2021/12/04 14:23:11;;;;;;;11.68;6.47;;;;;;;4.13;65.78;99111.50;1766499;80;21010;-76
2021/12/04 14:25:43;;;;;;;12.93;6.87;;;;;;;4.07;65.83;99110.38;1766383;80;21054;-75
2021/12/04 14:28:18;;;;;;;11.37;6.93;;;;;;;3.99;65.87;99111.06;1766338;80;20990;-73
2021/12/04 14:30:47;;;;;;;15.20;7.27;;;;;;;3.92;65.83;99104.38;1766286;80;21171;-75
2021/12/04 14:33:23;;;;;;;14.55;6.72;;;;;;;3.83;65.78;99102.92;1766558;81;21429;-75
2021/12/04 14:35:52;;;;;;;15.73;7.43;;;;;;;3.74;65.78;99097.58;1766250;81;20934;-79
2021/12/04 14:38:25;;;;;;;11.75;6.33;;;;;;;3.63;65.73;99095.75;1766366;81;21006;-74
2021/12/04 14:40:57;;;;;;;11.37;5.57;;;;;;;3.49;65.71;99096.16;1785595;79;21065;-78
2021/12/04 14:43:28;;;;;;;12.60;7.00;;;;;;;3.37;65.70;99104.27;1774914;79;21278;-84
2021/12/04 14:45:57;;;;;;;12.63;6.70;;;;;;;3.27;65.71;99101.10;1771232;79;21038;-75
2021/12/04 14:48:33;;;;;;;13.77;7.37;;;;;;;3.20;65.69;99103.90;1766294;81;21053;-72
2021/12/04 14:51:05;;;;;;;12.00;7.17;;;;;;;3.16;65.37;99108.32;1766704;81;21006;-78
2021/12/04 14:53:40;;;;;;;13.13;6.77;;;;;;;3.08;65.52;99107.68;1765567;81;20991;-72